createdAt,value
2022-07-25T00:01:21.362Z,60.26
2022-07-25T00:03:49.373Z,59.30
2022-07-25T00:06:18.882Z,59.29
2022-07-25T00:08:46.966Z,58.45
2022-07-25T00:11:14.956Z,58.13
2022-07-25T00:13:42.884Z,58.04
2022-07-25T00:16:11.276Z,57.56
2022-07-25T00:18:39.430Z,57.30
2022-07-25T00:21:07.638Z,57.17
2022-07-25T00:23:37.214Z,57.04
2022-07-25T00:26:05.388Z,57.26
2022-07-25T00:28:33.623Z,57.50
2022-07-25T00:31:01.773Z,56.94
2022-07-25T00:33:29.710Z,56.98
2022-07-25T00:35:57.667Z,57.10
2022-07-25T00:38:25.823Z,56.56
2022-07-25T00:40:55.920Z,56.90
2022-07-25T00:43:23.957Z,57.18
2022-07-25T00:45:52.238Z,56.88
2022-07-25T00:48:21.034Z,57.04
2022-07-25T00:50:49.428Z,56.86
2022-07-25T00:53:17.894Z,56.75
2022-07-25T00:55:47.305Z,56.38
2022-07-25T00:58:16.669Z,56.47
2022-07-25T01:00:44.789Z,56.56
2022-07-25T01:03:12.885Z,56.75
2022-07-25T01:05:41.187Z,56.70
2022-07-25T01:08:10.406Z,56.50
2022-07-25T01:10:39.415Z,56.44
2022-07-25T01:13:07.411Z,56.40
2022-07-25T01:15:36.960Z,56.10
2022-07-25T01:18:07.691Z,56.40
2022-07-25T01:20:37.332Z,56.36
2022-07-25T01:23:05.475Z,56.47
2022-07-25T01:25:33.495Z,56.39
2022-07-25T01:28:01.514Z,56.36
2022-07-25T01:30:29.512Z,56.11
2022-07-25T01:32:57.434Z,56.34
2022-07-25T01:35:25.523Z,56.42
2022-07-25T01:37:54.767Z,56.38
2022-07-25T01:40:23.611Z,56.26
2022-07-25T01:42:51.639Z,56.27
2022-07-25T01:45:19.760Z,56.18
2022-07-25T01:47:47.709Z,56.23
2022-07-25T01:50:15.810Z,55.93
2022-07-25T01:52:44.241Z,55.98
2022-07-25T01:55:14.075Z,56.38
2022-07-25T01:57:49.505Z,56.15
2022-07-25T02:00:18.732Z,56.31
2022-07-25T02:02:47.058Z,56.33
2022-07-25T02:05:16.295Z,55.86
2022-07-25T02:07:44.299Z,55.87
2022-07-25T02:10:13.650Z,55.92
2022-07-25T02:12:41.582Z,55.80
2022-07-25T02:15:10.648Z,55.19
2022-07-25T02:17:39.298Z,54.88
2022-07-25T02:20:08.312Z,54.86
2022-07-25T02:22:36.356Z,54.42
2022-07-25T02:25:04.495Z,54.00
2022-07-25T02:27:33.840Z,53.71
2022-07-25T02:30:01.765Z,53.89
2022-07-25T02:32:29.645Z,53.66
2022-07-25T02:34:58.463Z,53.34
2022-07-25T02:37:26.580Z,53.00
2022-07-25T02:39:54.516Z,52.60
2022-07-25T02:42:22.466Z,52.36
2022-07-25T02:44:51.892Z,52.07
2022-07-25T02:47:19.916Z,52.07
2022-07-25T02:49:47.814Z,52.15
2022-07-25T02:52:15.780Z,51.92
2022-07-25T02:54:43.832Z,51.88
2022-07-25T02:57:11.749Z,51.43
2022-07-25T02:59:39.844Z,51.79
2022-07-25T03:02:09.262Z,51.31
2022-07-25T03:04:37.233Z,51.11
2022-07-25T03:07:05.359Z,51.25
2022-07-25T03:09:33.426Z,51.07
2022-07-25T03:12:01.397Z,51.14
2022-07-25T03:14:29.492Z,50.80
2022-07-25T03:16:57.667Z,50.88
2022-07-25T03:19:27.436Z,50.80
2022-07-25T03:21:55.508Z,50.43
2022-07-25T03:24:23.589Z,50.60
2022-07-25T03:26:51.613Z,50.56
2022-07-25T03:29:19.746Z,50.25
2022-07-25T03:31:47.811Z,49.97
2022-07-25T03:34:15.906Z,49.89
2022-07-25T03:36:45.358Z,49.52
2022-07-25T03:39:14.459Z,49.57
2022-07-25T03:41:42.544Z,49.47
2022-07-25T03:44:10.672Z,49.36
2022-07-25T03:46:38.782Z,49.75
2022-07-25T03:49:06.829Z,49.40
2022-07-25T03:51:34.967Z,49.49
2022-07-25T03:54:05.444Z,49.24
2022-07-25T03:56:38.370Z,48.85
2022-07-25T03:59:13.490Z,49.05
2022-07-25T04:01:42.524Z,49.16
2022-07-25T04:04:11.016Z,49.03
2022-07-25T04:06:39.783Z,48.63
2022-07-25T04:09:11.008Z,48.94
2022-07-25T04:11:39.059Z,48.98
2022-07-25T04:14:08.171Z,48.47
2022-07-25T04:16:36.944Z,48.88
2022-07-25T04:19:06.212Z,48.30
2022-07-25T04:21:34.454Z,48.93
2022-07-25T04:24:02.576Z,48.47
2022-07-25T04:26:31.986Z,48.17
2022-07-25T04:29:03.208Z,48.21
2022-07-25T04:31:31.272Z,47.42
2022-07-25T04:34:00.039Z,47.47
2022-07-25T04:36:28.326Z,47.57
2022-07-25T04:38:56.263Z,47.62
2022-07-25T04:41:24.169Z,47.23
2022-07-25T04:43:53.623Z,46.83
2022-07-25T04:46:23.171Z,47.05
2022-07-25T04:48:52.222Z,46.75
2022-07-25T04:51:20.505Z,46.77
2022-07-25T04:53:48.544Z,46.59
2022-07-25T04:56:16.614Z,46.60
2022-07-25T04:58:44.710Z,46.42
2022-07-25T05:01:14.100Z,46.11
2022-07-25T05:03:50.127Z,46.16
2022-07-25T05:06:18.957Z,45.89
2022-07-25T05:08:46.972Z,45.96
2022-07-25T05:11:15.004Z,46.11
2022-07-25T05:13:43.162Z,45.83
2022-07-25T05:16:11.243Z,45.96
2022-07-25T05:18:40.572Z,46.12
2022-07-25T05:21:11.745Z,45.71
2022-07-25T05:23:39.678Z,45.85
2022-07-25T05:26:07.680Z,46.14
2022-07-25T05:28:35.841Z,45.64
2022-07-25T05:31:03.862Z,45.59
2022-07-25T05:33:31.890Z,45.46
2022-07-25T05:36:01.409Z,44.95
2022-07-25T05:38:30.044Z,45.38
2022-07-25T05:40:58.276Z,45.26
2022-07-25T05:43:26.234Z,44.84
2022-07-25T05:45:54.267Z,45.14
2022-07-25T05:48:22.299Z,44.17
2022-07-25T05:50:50.303Z,44.03
2022-07-25T05:53:19.604Z,43.97
2022-07-25T05:55:47.648Z,44.10
2022-07-25T05:58:16.088Z,43.88
2022-07-25T06:00:44.362Z,44.12
2022-07-25T06:03:12.411Z,44.18
2022-07-25T06:05:40.745Z,43.85
2022-07-25T06:08:08.653Z,43.72
2022-07-25T06:10:37.939Z,43.71
2022-07-25T06:13:06.022Z,43.83
2022-07-25T06:15:36.071Z,43.63
2022-07-25T06:18:04.213Z,43.49
2022-07-25T06:20:32.622Z,43.20
2022-07-25T06:23:00.903Z,42.87
2022-07-25T06:25:28.870Z,42.67
2022-07-25T06:27:58.469Z,43.18
2022-07-25T06:30:26.453Z,42.42
2022-07-25T06:32:54.377Z,42.94
2022-07-25T06:35:23.309Z,42.54
2022-07-25T06:37:51.350Z,42.31
2022-07-25T06:40:19.405Z,41.63
2022-07-25T06:42:48.890Z,41.08
2022-07-25T06:45:18.220Z,38.15
2022-07-25T06:47:46.788Z,35.38
2022-07-25T06:50:16.733Z,33.03
2022-07-25T06:52:44.694Z,32.41
2022-07-25T06:55:15.192Z,30.15
2022-07-25T06:57:43.495Z,30.02
2022-07-25T07:00:13.675Z,30.87
2022-07-25T07:02:58.265Z,31.30
2022-07-25T07:05:27.413Z,31.25
2022-07-25T07:07:55.531Z,32.50
2022-07-25T07:10:23.961Z,31.57
2022-07-25T07:12:52.800Z,31.97
2022-07-25T07:15:20.754Z,30.99
2022-07-25T07:17:48.690Z,29.34
2022-07-25T07:20:18.012Z,28.53
2022-07-25T07:22:46.566Z,28.06
2022-07-25T07:25:15.484Z,27.16
2022-07-25T07:27:43.722Z,27.34
2022-07-25T07:30:14.835Z,27.41
2022-07-25T07:32:43.772Z,26.35
2022-07-25T07:35:12.412Z,25.77
2022-07-25T07:37:43.807Z,25.17
2022-07-25T07:40:17.196Z,24.62
2022-07-25T07:42:48.196Z,25.04
2022-07-25T07:45:18.043Z,25.20
2022-07-25T07:47:48.107Z,24.43
2022-07-25T07:50:17.424Z,23.99
2022-07-25T07:52:47.593Z,23.18
2022-07-25T07:55:33.195Z,22.82
2022-07-25T07:58:01.685Z,22.79
2022-07-25T08:00:31.105Z,22.58
2022-07-25T08:03:00.259Z,22.29
2022-07-25T08:05:30.080Z,22.04
2022-07-25T08:08:01.249Z,21.86
2022-07-25T08:10:31.377Z,21.32
2022-07-25T08:13:00.302Z,21.35
2022-07-25T08:15:28.471Z,21.60
2022-07-25T08:17:56.684Z,21.59
2022-07-25T08:20:40.124Z,21.38
2022-07-25T08:23:11.383Z,22.18
2022-07-25T08:25:39.860Z,22.53
2022-07-25T08:28:07.961Z,22.42
2022-07-25T08:30:37.662Z,22.23
2022-07-25T08:33:07.323Z,21.44
2022-07-25T08:35:36.375Z,21.50
2022-07-25T08:38:05.966Z,20.87
2022-07-25T08:40:36.263Z,20.68
2022-07-25T08:43:05.789Z,20.45
2022-07-25T08:45:34.741Z,20.20
2022-07-25T08:48:02.818Z,20.18
2022-07-25T08:50:31.396Z,20.27
2022-07-25T08:53:30.356Z,19.67
2022-07-25T08:55:49.320Z,19.34
2022-07-25T08:58:18.437Z,19.10
2022-07-25T09:00:47.064Z,18.68
2022-07-25T09:03:15.125Z,17.83
2022-07-25T09:05:44.122Z,17.89
2022-07-25T09:08:14.153Z,18.65
2022-07-25T09:10:47.581Z,18.90
2022-07-25T09:13:17.835Z,18.56
2022-07-25T09:15:48.449Z,18.37
2022-07-25T09:18:19.228Z,19.51
2022-07-25T09:20:48.728Z,19.53
2022-07-25T09:23:28.525Z,19.72
2022-07-25T09:26:03.664Z,19.33
2022-07-25T09:28:33.612Z,19.34
2022-07-25T09:31:02.721Z,19.20
2022-07-25T09:33:30.814Z,18.15
2022-07-25T09:35:59.105Z,18.33
2022-07-25T09:38:27.132Z,17.89
2022-07-25T09:40:56.706Z,18.61
2022-07-25T09:43:24.806Z,19.97
2022-07-25T09:45:54.269Z,19.73
2022-07-25T09:48:22.243Z,20.47
2022-07-25T09:50:51.557Z,20.79
2022-07-25T09:53:21.163Z,21.16
2022-07-25T09:55:49.154Z,22.44
2022-07-25T09:58:17.095Z,22.38
2022-07-25T10:00:46.247Z,23.27
2022-07-25T10:03:21.460Z,23.01
2022-07-25T10:06:00.813Z,24.07
2022-07-25T10:08:29.432Z,24.18
2022-07-25T10:10:58.063Z,24.71
2022-07-25T10:13:34.328Z,24.99
2022-07-25T10:16:02.962Z,24.31
2022-07-25T10:18:34.601Z,24.94
2022-07-25T10:21:24.874Z,25.41
2022-07-25T10:24:05.552Z,24.63
2022-07-25T10:26:34.520Z,24.80
2022-07-25T10:29:02.837Z,25.36
2022-07-25T10:31:37.859Z,25.29
2022-07-25T10:34:08.775Z,25.66
2022-07-25T10:36:44.512Z,26.31
2022-07-25T10:39:14.646Z,25.10
2022-07-25T10:41:44.376Z,25.70
2022-07-25T10:44:14.741Z,26.46
2022-07-25T10:46:45.198Z,26.40
2022-07-25T10:49:23.623Z,26.46
2022-07-25T10:51:58.788Z,26.63
2022-07-25T10:54:27.039Z,26.56
2022-07-25T10:56:57.401Z,26.53
2022-07-25T10:59:31.261Z,26.89
2022-07-25T11:01:59.703Z,27.37
2022-07-25T11:04:30.617Z,27.33
2022-07-25T11:06:58.662Z,27.33
2022-07-25T11:09:28.523Z,27.51
2022-07-25T11:11:58.497Z,27.61
2022-07-25T11:14:31.236Z,28.33
2022-07-25T11:16:59.391Z,28.16
2022-07-25T11:19:30.304Z,28.61
2022-07-25T11:22:00.734Z,28.59
2022-07-25T11:24:36.903Z,28.66
2022-07-25T11:27:09.843Z,28.62
2022-07-25T11:29:40.820Z,28.32
2022-07-25T11:32:10.843Z,28.37
2022-07-25T11:34:43.730Z,28.41
2022-07-25T11:37:14.497Z,27.68
2022-07-25T11:39:45.000Z,28.48
2022-07-25T11:42:16.817Z,28.90
2022-07-25T11:44:48.079Z,28.45
2022-07-25T11:47:28.119Z,27.89
2022-07-25T11:49:59.517Z,28.32
2022-07-25T11:52:30.218Z,28.19
2022-07-25T11:55:00.013Z,28.34
2022-07-25T11:57:29.013Z,28.34
2022-07-25T11:59:57.823Z,28.38
2022-07-25T12:02:27.383Z,28.51
2022-07-25T12:04:58.754Z,27.62
2022-07-25T12:07:38.142Z,28.03
2022-07-25T12:10:07.589Z,28.21
2022-07-25T12:12:46.768Z,27.84
2022-07-25T12:15:15.239Z,27.61
2022-07-25T12:17:44.169Z,27.57
2022-07-25T12:20:16.329Z,27.03
2022-07-25T12:22:44.614Z,26.34
2022-07-25T12:25:13.576Z,26.64
2022-07-25T12:27:42.062Z,26.67
2022-07-25T12:30:11.790Z,27.09
2022-07-25T12:32:39.890Z,27.52
2022-07-25T12:35:10.964Z,27.21
2022-07-25T12:37:41.539Z,27.65
2022-07-25T12:40:10.911Z,27.16
2022-07-25T12:42:38.975Z,27.15
2022-07-25T12:45:08.621Z,27.08
2022-07-25T12:47:37.036Z,26.70
2022-07-25T12:50:05.854Z,27.03
2022-07-25T12:52:34.030Z,27.36
2022-07-25T12:55:03.654Z,27.05
2022-07-25T12:57:31.696Z,27.55
2022-07-25T12:59:59.719Z,27.38
2022-07-25T13:02:27.874Z,27.93
2022-07-25T13:04:55.849Z,28.05
2022-07-25T13:07:23.744Z,28.11
2022-07-25T13:09:51.910Z,28.54
2022-07-25T13:12:22.969Z,28.94
2022-07-25T13:14:50.966Z,29.39
2022-07-25T13:17:22.400Z,29.33
2022-07-25T13:19:52.917Z,29.06
2022-07-25T13:22:20.907Z,29.70
2022-07-25T13:24:48.779Z,28.97
2022-07-25T13:27:19.159Z,29.35
2022-07-25T13:29:54.292Z,29.25
2022-07-25T13:32:22.932Z,29.32
2022-07-25T13:34:50.905Z,29.70
2022-07-25T13:37:19.196Z,29.71
2022-07-25T13:39:47.165Z,29.89
2022-07-25T13:42:15.003Z,29.96
2022-07-25T13:44:43.177Z,29.49
2022-07-25T13:47:12.609Z,29.87
2022-07-25T13:49:41.281Z,29.67
2022-07-25T13:52:09.282Z,29.89
2022-07-25T13:54:37.513Z,30.18
2022-07-25T13:57:05.646Z,29.91
2022-07-25T13:59:33.803Z,29.89
2022-07-25T14:02:01.895Z,29.91
2022-07-25T14:04:31.505Z,30.17
2022-07-25T14:07:00.857Z,30.45
2022-07-25T14:09:28.783Z,30.57
2022-07-25T14:11:56.767Z,31.17
2022-07-25T14:14:24.925Z,31.42
2022-07-25T14:16:53.140Z,32.17
2022-07-25T14:19:21.117Z,32.03
2022-07-25T14:21:50.517Z,32.64
2022-07-25T14:24:18.371Z,34.93
2022-07-25T14:26:46.242Z,37.44
2022-07-25T14:29:14.448Z,39.34
2022-07-25T14:31:42.489Z,40.65
2022-07-25T14:34:10.389Z,41.86
2022-07-25T14:36:38.387Z,43.53
2022-07-25T14:39:08.641Z,44.24
2022-07-25T14:41:37.294Z,43.75
2022-07-25T14:44:05.691Z,44.19
2022-07-25T14:46:33.904Z,44.16
2022-07-25T14:49:01.993Z,44.34
2022-07-25T14:51:30.700Z,44.45
2022-07-25T14:53:58.617Z,45.48
2022-07-25T14:56:27.925Z,46.01
2022-07-25T14:58:56.161Z,46.00
2022-07-25T15:01:25.441Z,47.32
2022-07-25T15:03:56.073Z,46.96
2022-07-25T15:06:28.717Z,47.22
2022-07-25T15:08:57.261Z,47.27
2022-07-25T15:11:25.414Z,47.60
2022-07-25T15:13:54.631Z,49.55
2022-07-25T15:16:23.350Z,51.68
2022-07-25T15:19:15.309Z,52.62
2022-07-25T15:21:40.072Z,52.92
2022-07-25T15:24:08.385Z,54.27
2022-07-25T15:26:37.496Z,55.70
2022-07-25T15:29:10.022Z,57.06
2022-07-25T15:31:38.677Z,56.96
2022-07-25T15:34:06.660Z,57.18
2022-07-25T15:36:34.758Z,57.13
2022-07-25T15:39:02.656Z,58.37
2022-07-25T15:41:31.557Z,60.97
2022-07-25T15:43:59.895Z,64.06
2022-07-25T15:46:29.263Z,67.66
2022-07-25T15:48:58.412Z,69.95
2022-07-25T15:51:26.573Z,72.24
2022-07-25T15:53:54.540Z,74.34
2022-07-25T15:56:22.717Z,77.98
2022-07-25T15:58:50.821Z,79.89
2022-07-25T16:01:18.999Z,83.60
2022-07-25T16:03:48.449Z,84.70
2022-07-25T16:06:20.686Z,84.62
2022-07-25T16:08:50.116Z,86.02
2022-07-25T16:11:18.046Z,88.53
2022-07-25T16:13:46.104Z,87.80
2022-07-25T16:16:14.771Z,87.30
2022-07-25T16:18:42.836Z,88.80
2022-07-25T16:21:12.751Z,89.65
2022-07-25T16:23:45.319Z,89.08
2022-07-25T16:26:14.167Z,89.32
2022-07-25T16:28:42.710Z,90.87
2022-07-25T16:31:10.724Z,91.33
2022-07-25T16:33:38.887Z,92.99
2022-07-25T16:36:07.594Z,93.37
2022-07-25T16:38:37.019Z,92.03
2022-07-25T16:41:05.133Z,92.94
2022-07-25T16:43:33.085Z,93.55
2022-07-25T16:46:02.178Z,90.42
2022-07-25T16:48:30.563Z,89.85
2022-07-25T16:50:58.629Z,89.37
2022-07-25T16:53:26.591Z,90.58
2022-07-25T16:55:56.079Z,88.33
2022-07-25T16:58:23.966Z,90.30
2022-07-25T17:00:52.502Z,89.67
2022-07-25T17:03:20.796Z,87.78
2022-07-25T17:05:51.734Z,89.75
2022-07-25T17:08:19.841Z,89.47
2022-07-25T17:10:48.063Z,89.61
2022-07-25T17:13:17.483Z,89.35
2022-07-25T17:15:45.742Z,89.21
2022-07-25T17:18:14.345Z,89.75
2022-07-25T17:20:42.419Z,88.02
2022-07-25T17:23:11.078Z,88.81
2022-07-25T17:25:40.311Z,88.17
2022-07-25T17:28:08.919Z,86.61
2022-07-25T17:30:38.237Z,87.41
2022-07-25T17:33:06.312Z,86.76
2022-07-25T17:35:34.435Z,86.57
2022-07-25T17:38:02.462Z,85.40
2022-07-25T17:40:30.527Z,85.77
2022-07-25T17:43:00.056Z,86.05
2022-07-25T17:45:28.033Z,84.85
2022-07-25T17:47:57.605Z,84.76
2022-07-25T17:50:29.381Z,86.10
2022-07-25T17:52:59.633Z,85.77
2022-07-25T17:55:28.753Z,85.96
2022-07-25T17:57:59.736Z,86.01
2022-07-25T18:00:28.456Z,87.15
2022-07-25T18:02:57.849Z,88.75
2022-07-25T18:05:26.301Z,88.61
2022-07-25T18:07:54.370Z,88.73
2022-07-25T18:10:22.787Z,89.98
2022-07-25T18:12:51.639Z,87.74
2022-07-25T18:15:19.560Z,87.11
2022-07-25T18:17:48.424Z,86.74
2022-07-25T18:20:18.281Z,86.70
2022-07-25T18:22:46.812Z,87.24
2022-07-25T18:25:15.799Z,87.07
2022-07-25T18:27:45.827Z,86.77
2022-07-25T18:30:14.817Z,87.23
2022-07-25T18:32:43.055Z,87.01
2022-07-25T18:35:12.111Z,86.82
2022-07-25T18:37:41.538Z,87.93
2022-07-25T18:40:14.006Z,87.02
2022-07-25T18:42:42.672Z,87.35
2022-07-25T18:45:14.933Z,87.59
2022-07-25T18:47:47.100Z,88.55
2022-07-25T18:50:15.860Z,87.46
2022-07-25T18:52:45.435Z,87.28
2022-07-25T18:55:19.626Z,86.87
2022-07-25T18:57:47.847Z,86.50
2022-07-25T19:00:27.431Z,86.35
2022-07-25T19:02:55.618Z,86.76
2022-07-25T19:05:24.027Z,87.46
2022-07-25T19:07:53.865Z,87.47
2022-07-25T19:10:21.940Z,88.51
2022-07-25T19:12:54.400Z,87.13
2022-07-25T19:15:22.677Z,86.88
2022-07-25T19:17:52.494Z,86.87
2022-07-25T19:20:20.901Z,87.98
2022-07-25T19:22:53.782Z,87.57
2022-07-25T19:25:22.179Z,87.72
2022-07-25T19:27:56.939Z,88.93
2022-07-25T19:30:38.423Z,88.77
2022-07-25T19:33:11.018Z,88.98
2022-07-25T19:35:46.463Z,88.37
2022-07-25T19:38:26.481Z,89.15
2022-07-25T19:40:58.056Z,88.73
2022-07-25T19:43:29.040Z,88.51
2022-07-25T19:45:57.869Z,88.02
2022-07-25T19:48:27.359Z,86.80
2022-07-25T19:50:55.820Z,86.07
2022-07-25T19:53:28.610Z,85.37
2022-07-25T19:56:05.910Z,83.89
2022-07-25T19:58:43.354Z,82.80
2022-07-25T20:01:15.786Z,82.74
2022-07-25T20:03:48.786Z,82.33
2022-07-25T20:06:22.319Z,82.15
2022-07-25T20:09:11.106Z,81.71
2022-07-25T20:12:10.265Z,80.88
2022-07-25T20:14:43.135Z,82.50
2022-07-25T20:17:12.314Z,83.43
2022-07-25T20:19:49.535Z,82.56
2022-07-25T20:22:25.207Z,83.38
2022-07-25T20:24:55.125Z,83.88
2022-07-25T20:27:23.903Z,84.46
2022-07-25T20:29:53.716Z,84.73
2022-07-25T20:32:21.998Z,84.19
2022-07-25T20:34:52.708Z,84.59
2022-07-25T20:37:20.655Z,84.64
2022-07-25T20:39:48.667Z,85.04
2022-07-25T20:42:18.445Z,86.33
2022-07-25T20:44:46.720Z,86.65
2022-07-25T20:47:16.134Z,85.05
2022-07-25T20:49:44.437Z,84.22
2022-07-25T20:52:12.494Z,84.22
2022-07-25T20:54:42.264Z,83.58
2022-07-25T20:57:11.563Z,83.77
2022-07-25T20:59:41.178Z,84.41
2022-07-25T21:02:09.455Z,83.68
2022-07-25T21:04:37.456Z,84.25
2022-07-25T21:07:05.619Z,84.06
2022-07-25T21:09:35.181Z,84.52
2022-07-25T21:12:03.374Z,84.88
2022-07-25T21:14:31.363Z,84.50
2022-07-25T21:17:01.070Z,85.08
2022-07-25T21:19:29.127Z,84.65
2022-07-25T21:21:57.153Z,85.45
2022-07-25T21:24:25.390Z,85.83
2022-07-25T21:26:53.385Z,86.62
2022-07-25T21:29:21.357Z,86.74
2022-07-25T21:31:49.598Z,86.96
2022-07-25T21:34:18.962Z,87.02
2022-07-25T21:36:48.063Z,88.55
2022-07-25T21:39:16.064Z,88.59
2022-07-25T21:41:44.885Z,86.27
2022-07-25T21:44:14.671Z,85.96
2022-07-25T21:46:42.668Z,85.61
2022-07-25T21:49:41.468Z,85.05
2022-07-25T21:52:13.954Z,85.11
2022-07-25T21:54:42.337Z,84.87
2022-07-25T21:57:13.284Z,85.19
2022-07-25T21:59:42.258Z,84.69
2022-07-25T22:02:10.203Z,84.51
2022-07-25T22:04:38.305Z,84.51
2022-07-25T22:07:06.770Z,83.52
2022-07-25T22:09:36.225Z,83.50
2022-07-25T22:12:04.876Z,83.68
2022-07-25T22:14:32.995Z,83.78
2022-07-25T22:17:01.180Z,84.08
2022-07-25T22:19:29.281Z,84.76
2022-07-25T22:21:57.277Z,84.43
2022-07-25T22:24:25.240Z,84.82
2022-07-25T22:26:54.647Z,85.27
2022-07-25T22:29:23.722Z,85.11
2022-07-25T22:31:51.682Z,85.20
2022-07-25T22:34:19.732Z,86.12
2022-07-25T22:36:47.829Z,86.10
2022-07-25T22:39:16.751Z,86.39
2022-07-25T22:41:44.719Z,85.45
2022-07-25T22:44:14.312Z,85.17
2022-07-25T22:46:42.316Z,84.57
2022-07-25T22:49:10.770Z,84.69
2022-07-25T22:51:39.137Z,84.33
2022-07-25T22:54:07.421Z,84.91
2022-07-25T22:56:35.457Z,85.04
2022-07-25T22:59:03.457Z,85.12
2022-07-25T23:01:33.311Z,85.33
2022-07-25T23:04:01.280Z,84.75
2022-07-25T23:06:29.364Z,84.93
2022-07-25T23:08:57.443Z,84.53
2022-07-25T23:11:27.210Z,84.55
2022-07-25T23:13:55.468Z,84.59
2022-07-25T23:16:23.452Z,83.92
2022-07-25T23:18:52.871Z,83.52
2022-07-25T23:21:21.008Z,82.72
2022-07-25T23:23:48.978Z,83.29
2022-07-25T23:26:17.137Z,82.08
2022-07-25T23:28:45.306Z,82.04
2022-07-25T23:31:13.324Z,81.48
2022-07-25T23:33:41.239Z,81.90
2022-07-25T23:36:11.475Z,82.08
2022-07-25T23:38:39.530Z,82.93
2022-07-25T23:41:07.911Z,83.97
2022-07-25T23:43:54.976Z,83.37
2022-07-25T23:46:29.261Z,84.01
2022-07-25T23:48:57.752Z,84.07
2022-07-25T23:51:27.228Z,85.49
2022-07-25T23:53:55.200Z,84.99
2022-07-25T23:56:23.338Z,83.88
2022-07-25T23:58:51.350Z,84.00
